createdAt,value
2023-02-11T00:00:01.523Z,4.50
2023-02-11T00:02:31.684Z,4.27
2023-02-11T00:05:00.167Z,4.39
2023-02-11T00:07:33.896Z,4.44
2023-02-11T00:10:02.165Z,4.44
2023-02-11T00:12:30.449Z,4.35
2023-02-11T00:14:58.665Z,4.20
2023-02-11T00:17:26.507Z,4.16
2023-02-11T00:19:54.426Z,4.12
2023-02-11T00:22:22.165Z,4.22
2023-02-11T00:24:51.396Z,4.23
2023-02-11T00:27:19.308Z,4.22
2023-02-11T00:29:48.483Z,4.29
2023-02-11T00:32:16.231Z,4.44
2023-02-11T00:34:44.139Z,4.55
2023-02-11T00:37:12.056Z,4.52
2023-02-11T00:39:40.252Z,4.35
2023-02-11T00:42:15.699Z,4.26
2023-02-11T00:44:43.850Z,4.38
2023-02-11T00:47:13.791Z,4.32
2023-02-11T00:49:42.037Z,4.28
2023-02-11T00:52:10.008Z,4.27
2023-02-11T00:54:37.877Z,4.36
2023-02-11T00:57:05.720Z,4.30
2023-02-11T00:59:35.202Z,4.32
2023-02-11T01:02:03.073Z,4.34
2023-02-11T01:04:30.938Z,4.35
2023-02-11T01:06:58.812Z,4.52
2023-02-11T01:09:26.556Z,4.40
2023-02-11T01:11:54.259Z,4.25
2023-02-11T01:14:22.546Z,4.05
2023-02-11T01:16:52.147Z,4.36
2023-02-11T01:19:19.961Z,4.22
2023-02-11T01:21:48.018Z,4.13
2023-02-11T01:24:15.820Z,4.17
2023-02-11T01:26:43.865Z,4.23
2023-02-11T01:29:11.875Z,4.16
2023-02-11T01:31:39.839Z,4.20
2023-02-11T01:34:08.914Z,4.26
2023-02-11T01:36:37.141Z,4.42
2023-02-11T01:39:05.332Z,4.37
2023-02-11T01:41:34.618Z,4.18
2023-02-11T01:44:25.926Z,4.03
2023-02-11T01:46:54.618Z,3.80
2023-02-11T01:49:31.930Z,3.87
2023-02-11T01:52:08.109Z,3.87
2023-02-11T01:54:48.049Z,3.68
2023-02-11T01:57:21.866Z,3.65
2023-02-11T02:00:01.389Z,3.68
2023-02-11T02:02:39.931Z,3.98
2023-02-11T02:05:20.574Z,4.21
2023-02-11T02:07:58.861Z,3.98
2023-02-11T02:10:29.181Z,4.00
2023-02-11T02:12:58.177Z,3.96
2023-02-11T02:15:31.547Z,4.04
2023-02-11T02:18:08.810Z,3.88
2023-02-11T02:21:10.062Z,3.86
2023-02-11T02:24:08.549Z,4.11
2023-02-11T02:27:02.876Z,4.00
2023-02-11T02:30:03.242Z,4.03
2023-02-11T02:32:52.276Z,4.05
2023-02-11T02:35:34.867Z,3.89
2023-02-11T02:38:11.653Z,3.89
2023-02-11T02:40:48.043Z,4.11
2023-02-11T02:43:18.751Z,4.17
2023-02-11T02:45:48.885Z,3.90
2023-02-11T02:48:37.460Z,3.77
2023-02-11T02:51:28.745Z,3.74
2023-02-11T02:54:19.014Z,3.62
2023-02-11T02:56:59.432Z,3.68
2023-02-11T03:00:10.945Z,3.72
2023-02-11T03:02:54.099Z,3.54
2023-02-11T03:05:33.607Z,3.78
2023-02-11T03:08:09.728Z,3.84
2023-02-11T03:10:45.648Z,3.97
2023-02-11T03:13:15.807Z,3.70
2023-02-11T03:15:50.411Z,3.85
2023-02-11T03:18:24.497Z,3.89
2023-02-11T03:20:56.563Z,3.94
2023-02-11T03:23:33.240Z,3.86
2023-02-11T03:26:13.537Z,3.93
2023-02-11T03:28:51.500Z,3.85
2023-02-11T03:31:29.588Z,3.97
2023-02-11T03:34:05.689Z,3.97
2023-02-11T03:36:43.560Z,3.79
2023-02-11T03:39:16.155Z,4.04
2023-02-11T03:41:49.559Z,3.93
2023-02-11T03:44:19.570Z,3.92
2023-02-11T03:46:52.344Z,3.94
2023-02-11T03:49:24.473Z,3.98
2023-02-11T03:51:56.574Z,3.87
2023-02-11T03:54:31.029Z,3.69
2023-02-11T03:57:01.989Z,3.91
2023-02-11T03:59:32.675Z,3.99
2023-02-11T04:02:00.521Z,3.64
2023-02-11T04:04:28.268Z,3.70
2023-02-11T04:06:57.611Z,3.52
2023-02-11T04:09:25.459Z,3.65
2023-02-11T04:11:53.494Z,3.49
2023-02-11T04:14:21.268Z,3.39
2023-02-11T04:16:49.107Z,3.51
2023-02-11T04:19:21.095Z,3.46
2023-02-11T04:21:49.275Z,3.54
2023-02-11T04:24:19.795Z,3.54
2023-02-11T04:26:48.727Z,3.65
2023-02-11T04:29:16.589Z,3.62
2023-02-11T04:31:44.971Z,3.65
2023-02-11T04:34:12.729Z,3.75
2023-02-11T04:36:40.485Z,3.46
2023-02-11T04:39:08.198Z,3.45
2023-02-11T04:41:37.227Z,3.46
2023-02-11T04:44:05.766Z,3.44
2023-02-11T04:46:34.128Z,3.65
2023-02-11T04:49:02.149Z,3.56
2023-02-11T04:51:29.950Z,3.59
2023-02-11T04:53:57.659Z,3.62
2023-02-11T04:56:25.355Z,3.57
2023-02-11T04:58:54.527Z,3.56
2023-02-11T05:01:22.647Z,3.70
2023-02-11T05:03:50.696Z,3.39
2023-02-11T05:06:18.478Z,3.46
2023-02-11T05:08:46.123Z,3.64
2023-02-11T05:11:17.781Z,3.77
2023-02-11T05:13:46.460Z,3.72
2023-02-11T05:16:16.730Z,3.58
2023-02-11T05:18:45.523Z,3.62
2023-02-11T05:21:16.082Z,3.64
2023-02-11T05:23:44.975Z,3.50
2023-02-11T05:26:13.669Z,3.51
2023-02-11T05:28:41.936Z,3.43
2023-02-11T05:31:11.172Z,3.41
2023-02-11T05:33:42.122Z,3.32
2023-02-11T05:36:12.908Z,3.38
2023-02-11T05:38:40.958Z,3.25
2023-02-11T05:41:10.687Z,3.15
2023-02-11T05:43:38.348Z,3.03
2023-02-11T05:46:06.575Z,3.00
2023-02-11T05:48:34.904Z,2.99
2023-02-11T05:51:04.709Z,3.15
2023-02-11T05:53:32.417Z,3.37
2023-02-11T05:56:00.369Z,3.45
2023-02-11T05:58:28.670Z,3.46
2023-02-11T06:00:56.516Z,3.31
2023-02-11T06:03:24.125Z,3.37
2023-02-11T06:05:52.227Z,3.35
2023-02-11T06:08:21.504Z,3.44
2023-02-11T06:10:49.240Z,3.25
2023-02-11T06:13:17.075Z,3.44
2023-02-11T06:15:44.729Z,3.43
2023-02-11T06:18:12.273Z,3.39
2023-02-11T06:20:39.907Z,3.46
2023-02-11T06:23:07.591Z,3.61
2023-02-11T06:25:37.187Z,3.39
2023-02-11T06:28:06.311Z,3.33
2023-02-11T06:30:35.147Z,3.47
2023-02-11T06:33:04.184Z,3.44
2023-02-11T06:35:33.043Z,3.57
2023-02-11T06:38:01.966Z,3.61
2023-02-11T06:40:29.863Z,3.35
2023-02-11T06:42:59.129Z,3.55
2023-02-11T06:45:26.825Z,3.71
2023-02-11T06:47:54.597Z,3.59
2023-02-11T06:50:22.324Z,3.78
2023-02-11T06:52:49.962Z,3.86
2023-02-11T06:55:17.709Z,3.50
2023-02-11T06:57:45.863Z,3.56
2023-02-11T07:00:16.161Z,3.64
2023-02-11T07:03:03.888Z,3.56
2023-02-11T07:05:32.800Z,3.72
2023-02-11T07:08:00.445Z,3.87
2023-02-11T07:10:27.992Z,3.75
2023-02-11T07:12:58.648Z,3.98
2023-02-11T07:15:29.951Z,3.98
2023-02-11T07:17:57.637Z,4.03
2023-02-11T07:20:25.710Z,4.05
2023-02-11T07:22:53.337Z,3.96
2023-02-11T07:25:21.046Z,4.03
2023-02-11T07:27:48.627Z,4.09
2023-02-11T07:30:16.424Z,3.98
2023-02-11T07:32:45.310Z,4.18
2023-02-11T07:35:13.013Z,4.18
2023-02-11T07:37:41.069Z,4.29
2023-02-11T07:40:09.478Z,4.24
2023-02-11T07:42:37.443Z,4.31
2023-02-11T07:45:05.817Z,4.26
2023-02-11T07:47:34.702Z,4.37
2023-02-11T07:50:03.780Z,4.43
2023-02-11T07:52:31.810Z,4.36
2023-02-11T08:00:28.184Z,4.66
2023-02-11T08:02:56.885Z,4.82
2023-02-11T08:05:26.155Z,4.79
2023-02-11T08:07:55.275Z,4.73
2023-02-11T08:10:23.265Z,4.90
2023-02-11T08:12:50.948Z,5.15
2023-02-11T08:15:18.552Z,5.49
2023-02-11T08:17:46.724Z,6.61
2023-02-11T08:20:14.378Z,8.62
2023-02-11T08:22:44.071Z,10.11
2023-02-11T08:25:11.726Z,10.62
2023-02-11T08:27:40.032Z,10.21
2023-02-11T08:30:08.722Z,9.91
2023-02-11T08:32:36.451Z,9.48
2023-02-11T08:35:04.796Z,8.85
2023-02-11T08:37:33.455Z,9.49
2023-02-11T08:40:02.553Z,7.87
2023-02-11T08:42:30.235Z,7.14
2023-02-11T08:44:57.895Z,6.38
2023-02-11T08:47:25.675Z,5.95
2023-02-11T08:49:53.241Z,6.45
2023-02-11T08:52:20.859Z,7.92
2023-02-11T08:54:48.443Z,8.44
2023-02-11T08:57:17.374Z,8.92
2023-02-11T08:59:44.985Z,8.65
2023-02-11T09:02:14.165Z,9.41
2023-02-11T09:04:41.828Z,10.28
2023-02-11T09:07:09.638Z,10.12
2023-02-11T09:09:37.260Z,10.08
2023-02-11T09:12:05.560Z,10.77
2023-02-11T09:14:34.508Z,11.35
2023-02-11T09:17:02.155Z,11.08
2023-02-11T09:19:29.768Z,10.85
2023-02-11T09:21:57.998Z,11.11
2023-02-11T09:24:25.692Z,11.85
2023-02-11T09:26:53.375Z,12.31
2023-02-11T09:29:22.473Z,11.86
2023-02-11T09:31:51.680Z,12.77
2023-02-11T09:34:19.563Z,12.99
2023-02-11T09:36:47.328Z,13.47
2023-02-11T09:39:18.349Z,12.83
2023-02-11T09:42:08.725Z,13.52
2023-02-11T09:44:38.907Z,13.75
2023-02-11T09:47:25.245Z,14.23
2023-02-11T09:49:59.961Z,13.89
2023-02-11T09:52:37.052Z,14.41
2023-02-11T09:55:11.516Z,14.11
2023-02-11T09:57:39.254Z,14.34
2023-02-11T10:00:26.718Z,14.71
2023-02-11T10:03:21.524Z,14.99
2023-02-11T10:06:10.014Z,14.87
2023-02-11T10:08:53.377Z,14.80
2023-02-11T10:11:32.207Z,14.80
2023-02-11T10:14:21.863Z,14.94
2023-02-11T10:17:07.841Z,15.27
2023-02-11T10:19:56.850Z,14.91
2023-02-11T10:22:32.686Z,15.33
2023-02-11T10:25:06.326Z,15.54
2023-02-11T10:27:36.127Z,14.16
2023-02-11T10:30:18.371Z,14.64
2023-02-11T10:32:52.694Z,14.60
2023-02-11T10:35:23.692Z,14.16
2023-02-11T10:37:51.479Z,15.09
2023-02-11T10:40:21.510Z,14.55
2023-02-11T10:42:54.328Z,15.22
2023-02-11T10:45:30.522Z,14.86
2023-02-11T10:47:58.213Z,14.72
2023-02-11T10:50:29.462Z,15.64
2023-02-11T10:53:13.197Z,15.39
2023-02-11T10:55:51.207Z,14.91
2023-02-11T10:58:28.761Z,14.93
2023-02-11T11:00:59.786Z,15.02
2023-02-11T11:03:40.512Z,15.65
2023-02-11T11:06:10.122Z,15.55
2023-02-11T11:08:43.089Z,15.69
2023-02-11T11:11:16.134Z,14.72
2023-02-11T11:13:57.845Z,14.02
2023-02-11T11:16:27.508Z,14.21
2023-02-11T11:19:20.385Z,14.33
2023-02-11T11:21:52.377Z,15.26
2023-02-11T11:24:22.646Z,14.83
2023-02-11T11:26:53.851Z,14.56
2023-02-11T11:29:29.468Z,14.77
2023-02-11T11:32:00.306Z,14.80
2023-02-11T11:34:31.812Z,14.49
2023-02-11T11:37:10.798Z,14.99
2023-02-11T11:39:43.145Z,15.12
2023-02-11T11:42:25.954Z,15.78
2023-02-11T11:44:59.111Z,16.31
2023-02-11T11:47:34.885Z,15.85
2023-02-11T11:50:26.832Z,15.83
2023-02-11T11:53:01.037Z,15.98
2023-02-11T11:55:34.875Z,16.30
2023-02-11T11:58:02.503Z,13.75
2023-02-11T12:00:40.965Z,15.46
2023-02-11T12:03:40.962Z,15.37
2023-02-11T12:06:22.914Z,15.45
2023-02-11T12:09:09.875Z,15.28
2023-02-11T12:12:19.620Z,15.76
2023-02-11T12:15:15.696Z,15.37
2023-02-11T12:17:59.293Z,15.48
2023-02-11T12:20:38.546Z,16.10
2023-02-11T12:23:38.706Z,16.23
2023-02-11T12:26:15.772Z,16.32
2023-02-11T12:29:03.206Z,16.19
2023-02-11T12:31:48.340Z,16.09
2023-02-11T12:34:39.417Z,15.03
2023-02-11T12:37:23.661Z,15.71
2023-02-11T12:48:25.059Z,12.57
2023-02-11T12:51:07.447Z,11.80
2023-02-11T12:53:55.861Z,12.55
2023-02-11T12:59:20.795Z,11.53
2023-02-11T13:01:51.918Z,11.44
2023-02-11T13:18:44.740Z,11.62
2023-02-11T13:21:56.030Z,11.42
2023-02-11T13:24:47.749Z,11.03
2023-02-11T13:27:32.273Z,11.20
2023-02-11T13:30:23.459Z,11.17
2023-02-11T13:33:16.485Z,10.81
2023-02-11T13:35:49.514Z,10.77
2023-02-11T13:38:21.012Z,10.56
2023-02-11T13:41:02.719Z,10.13
2023-02-11T13:43:33.224Z,9.85
2023-02-11T13:46:04.331Z,9.85
2023-02-11T13:48:48.864Z,9.67
2023-02-11T13:51:33.159Z,9.90
2023-02-11T13:54:02.858Z,10.71
2023-02-11T13:56:35.790Z,10.95
2023-02-11T13:59:06.201Z,11.32
2023-02-11T14:01:58.073Z,10.76
2023-02-11T14:04:27.556Z,10.88
2023-02-11T14:07:27.667Z,11.41
2023-02-11T14:09:55.446Z,11.76
2023-02-11T14:12:31.299Z,11.90
2023-02-11T14:15:19.257Z,11.48
2023-02-11T14:17:47.842Z,11.42
2023-02-11T14:20:42.399Z,11.23
2023-02-11T14:23:26.422Z,11.13
2023-02-11T14:26:10.135Z,11.52
2023-02-11T14:28:42.067Z,11.45
2023-02-11T14:31:18.464Z,11.33
2023-02-11T14:34:03.561Z,11.38
2023-02-11T14:37:02.152Z,11.39
2023-02-11T14:39:48.925Z,10.98
2023-02-11T14:42:21.256Z,11.24
2023-02-11T14:44:52.494Z,11.30
2023-02-11T14:47:27.363Z,11.04
2023-02-11T14:49:56.258Z,10.59
2023-02-11T14:52:31.373Z,10.91
2023-02-11T14:55:14.789Z,10.99
2023-02-11T14:57:42.624Z,10.85
2023-02-11T15:00:18.332Z,10.64
2023-02-11T15:02:47.415Z,10.61
2023-02-11T15:05:18.551Z,10.47
2023-02-11T15:07:52.332Z,9.97
2023-02-11T15:10:34.540Z,10.26
2023-02-11T15:13:04.456Z,9.96
2023-02-11T15:15:34.291Z,9.75
2023-02-11T15:18:05.645Z,9.86
2023-02-11T15:20:34.844Z,9.72
2023-02-11T15:23:16.382Z,9.78
2023-02-11T15:25:47.458Z,9.70
2023-02-11T15:28:22.416Z,9.70
2023-02-11T15:30:57.501Z,9.75
2023-02-11T15:33:25.643Z,9.77
2023-02-11T15:35:53.528Z,10.01
2023-02-11T15:38:23.324Z,9.70
2023-02-11T15:40:54.975Z,9.85
2023-02-11T15:43:22.789Z,10.09
2023-02-11T15:46:00.721Z,9.96
2023-02-11T15:48:36.616Z,9.52
2023-02-11T15:51:13.316Z,9.84
2023-02-11T15:53:48.395Z,9.84
2023-02-11T15:56:23.400Z,9.67
2023-02-11T15:58:54.970Z,9.53
2023-02-11T16:01:34.105Z,8.80
2023-02-11T16:04:03.427Z,8.65
2023-02-11T16:06:38.922Z,8.49
2023-02-11T16:09:25.919Z,8.20
2023-02-11T16:11:56.444Z,7.62
2023-02-11T16:14:29.342Z,7.56
2023-02-11T16:17:00.509Z,7.76
2023-02-11T16:19:30.114Z,7.79
2023-02-11T16:22:02.094Z,7.79
2023-02-11T16:24:34.865Z,7.47
2023-02-11T16:27:06.601Z,7.43
2023-02-11T16:29:37.046Z,7.24
2023-02-11T16:32:08.528Z,7.41
2023-02-11T16:34:37.051Z,7.19
2023-02-11T16:37:05.901Z,7.30
2023-02-11T16:39:36.003Z,7.17
2023-02-11T16:42:07.090Z,7.34
2023-02-11T16:44:35.602Z,7.36
2023-02-11T16:47:06.916Z,7.22
2023-02-11T16:49:37.956Z,7.18
2023-02-11T16:52:08.073Z,7.46
2023-02-11T16:54:37.596Z,7.40
2023-02-11T16:57:13.973Z,7.31
2023-02-11T16:59:41.793Z,7.45
2023-02-11T17:02:16.843Z,7.51
2023-02-11T17:04:46.858Z,7.30
2023-02-11T17:07:16.099Z,7.40
2023-02-11T17:09:45.210Z,7.02
2023-02-11T17:12:12.913Z,7.13
2023-02-11T17:14:40.909Z,7.11
2023-02-11T17:17:09.612Z,7.02
2023-02-11T17:19:37.640Z,7.05
2023-02-11T17:22:06.186Z,6.92
2023-02-11T17:24:34.119Z,6.83
2023-02-11T17:27:03.951Z,6.84
2023-02-11T17:29:31.713Z,6.83
2023-02-11T17:31:59.722Z,6.62
2023-02-11T17:34:28.541Z,6.63
2023-02-11T17:36:56.240Z,6.51
2023-02-11T17:39:24.006Z,6.49
2023-02-11T17:41:52.085Z,6.41
2023-02-11T17:44:21.257Z,6.36
2023-02-11T17:46:50.385Z,6.42
2023-02-11T17:49:18.211Z,6.33
2023-02-11T17:51:46.602Z,6.32
2023-02-11T17:54:17.143Z,6.37
2023-02-11T17:56:46.102Z,6.39
2023-02-11T17:59:14.754Z,6.35
2023-02-11T18:01:43.818Z,6.43
2023-02-11T18:04:14.234Z,6.47
2023-02-11T18:06:42.316Z,6.45
2023-02-11T18:09:10.831Z,6.52
2023-02-11T18:11:40.260Z,6.48
2023-02-11T18:14:09.866Z,6.47
2023-02-11T18:16:40.210Z,6.47
2023-02-11T18:19:10.666Z,6.54
2023-02-11T18:21:39.017Z,6.55
2023-02-11T18:24:07.402Z,6.54
2023-02-11T18:26:35.967Z,6.46
2023-02-11T18:29:04.595Z,6.52
2023-02-11T18:31:32.751Z,6.56
2023-02-11T18:34:00.462Z,6.62
2023-02-11T18:36:29.521Z,6.61
2023-02-11T18:38:58.368Z,6.58
2023-02-11T18:41:27.064Z,6.54
2023-02-11T18:43:57.390Z,6.65
2023-02-11T18:46:25.077Z,6.82
2023-02-11T18:48:55.598Z,6.87
2023-02-11T18:51:24.623Z,6.93
2023-02-11T18:53:53.795Z,7.06
2023-02-11T18:56:23.512Z,7.04
2023-02-11T18:58:51.555Z,7.03
2023-02-11T19:01:21.846Z,7.13
2023-02-11T19:03:50.081Z,7.14
2023-02-11T19:06:20.870Z,7.26
2023-02-11T19:08:48.552Z,7.22
2023-02-11T19:11:18.000Z,7.09
2023-02-11T19:13:45.839Z,7.07
2023-02-11T19:16:14.069Z,7.12
2023-02-11T19:18:41.808Z,7.11
2023-02-11T19:21:11.389Z,7.10
2023-02-11T19:23:39.497Z,7.12
2023-02-11T19:26:07.404Z,7.03
2023-02-11T19:28:36.553Z,7.00
2023-02-11T19:31:08.658Z,7.01
2023-02-11T19:33:36.806Z,6.97
2023-02-11T19:36:05.967Z,6.97
2023-02-11T19:38:33.936Z,6.95
2023-02-11T19:41:02.472Z,6.94
2023-02-11T19:43:30.310Z,6.55
2023-02-11T19:46:01.337Z,6.59
2023-02-11T19:48:29.423Z,6.39
2023-02-11T19:50:57.614Z,6.45
2023-02-11T19:53:25.571Z,6.52
2023-02-11T19:55:53.576Z,6.44
2023-02-11T19:58:21.459Z,6.40
2023-02-11T20:00:49.594Z,6.30
2023-02-11T20:03:18.863Z,6.42
2023-02-11T20:05:46.669Z,6.16
2023-02-11T20:08:14.444Z,6.37
2023-02-11T20:10:42.321Z,6.21
2023-02-11T20:13:10.048Z,6.07
2023-02-11T20:15:37.868Z,6.11
2023-02-11T20:18:05.694Z,6.17
2023-02-11T20:20:34.824Z,6.12
2023-02-11T20:23:02.494Z,6.14
2023-02-11T20:25:30.259Z,6.18
2023-02-11T20:27:58.228Z,6.14
2023-02-11T20:30:26.085Z,6.11
2023-02-11T20:32:54.021Z,6.09
2023-02-11T20:35:21.892Z,6.11
2023-02-11T20:37:51.463Z,6.19
2023-02-11T20:40:19.688Z,6.13
2023-02-11T20:42:47.760Z,6.04
2023-02-11T20:45:15.726Z,5.89
2023-02-11T20:47:43.498Z,6.12
2023-02-11T20:50:11.520Z,6.25
2023-02-11T20:52:39.413Z,6.25
2023-02-11T20:55:10.863Z,6.23
2023-02-11T20:57:38.871Z,6.33
2023-02-11T21:00:08.038Z,6.25
2023-02-11T21:02:35.980Z,6.20
2023-02-11T21:05:04.143Z,6.06
2023-02-11T21:07:32.061Z,6.24
2023-02-11T21:09:59.767Z,6.26
2023-02-11T21:12:29.025Z,6.10
2023-02-11T21:14:57.157Z,6.23
2023-02-11T21:17:25.238Z,6.28
2023-02-11T21:19:53.197Z,6.27
2023-02-11T21:22:21.220Z,6.34
2023-02-11T21:24:49.557Z,6.34
2023-02-11T21:27:17.427Z,6.34
2023-02-11T21:29:54.228Z,6.30
2023-02-11T21:32:23.279Z,6.30
2023-02-11T21:34:51.074Z,6.20
2023-02-11T21:37:18.797Z,6.17
2023-02-11T21:39:46.829Z,6.08
2023-02-11T21:42:15.707Z,6.19
2023-02-11T21:44:43.659Z,6.21
2023-02-11T21:47:13.439Z,6.22
2023-02-11T21:49:42.917Z,6.23
2023-02-11T21:52:10.841Z,6.26
2023-02-11T21:54:38.725Z,6.19
2023-02-11T21:57:06.488Z,6.21
2023-02-11T21:59:34.255Z,6.10
2023-02-11T22:02:02.229Z,6.13
2023-02-11T22:04:32.554Z,6.16
2023-02-11T22:07:00.774Z,6.09
2023-02-11T22:09:29.607Z,5.84
2023-02-11T22:11:57.428Z,5.94
2023-02-11T22:14:25.565Z,5.88
2023-02-11T22:16:53.483Z,5.78
2023-02-11T22:19:21.393Z,5.79
2023-02-11T22:21:51.403Z,5.87
2023-02-11T22:24:19.285Z,5.83
2023-02-11T22:26:47.093Z,5.82
2023-02-11T22:29:14.997Z,5.93
2023-02-11T22:31:47.497Z,5.87
2023-02-11T22:34:15.367Z,6.05
2023-02-11T22:36:43.144Z,6.03
2023-02-11T22:39:14.895Z,5.89
2023-02-11T22:41:44.182Z,5.94
2023-02-11T22:44:14.090Z,5.93
2023-02-11T22:46:42.478Z,5.84
2023-02-11T22:49:16.659Z,5.96
2023-02-11T22:51:45.957Z,5.91
2023-02-11T22:54:16.954Z,5.80
2023-02-11T22:56:49.759Z,5.89
2023-02-11T22:59:18.553Z,5.94
2023-02-11T23:01:46.666Z,5.93
2023-02-11T23:04:17.060Z,5.97
2023-02-11T23:06:45.663Z,5.85
2023-02-11T23:09:15.418Z,5.88
2023-02-11T23:11:43.193Z,5.82
2023-02-11T23:14:10.956Z,5.87
2023-02-11T23:16:39.319Z,5.67
2023-02-11T23:19:09.983Z,5.61
2023-02-11T23:21:39.122Z,5.50
2023-02-11T23:24:11.556Z,5.74
2023-02-11T23:26:42.473Z,5.71
2023-02-11T23:29:12.177Z,5.65
2023-02-11T23:31:42.586Z,5.79
2023-02-11T23:34:10.983Z,5.62
2023-02-11T23:36:38.832Z,5.66
2023-02-11T23:39:06.648Z,5.68
2023-02-11T23:41:34.705Z,5.66
2023-02-11T23:44:04.082Z,5.70
2023-02-11T23:46:31.862Z,5.80
2023-02-11T23:49:00.440Z,5.86
2023-02-11T23:51:28.460Z,5.45
2023-02-11T23:53:57.336Z,5.19
2023-02-11T23:56:28.154Z,5.18
2023-02-11T23:58:58.055Z,5.19
